Terminal Aerodrome Forecast
Issued by NWS

Home | Current Version | Previous Version | Text Only | Print | Product List | Glossary On
Versions: 1 2 3 4 5 6 7 8 9 10 11 12 13 14 15 16 17 18 19
000
FTUS44 KOUN 291852 AAA
TAFPNC
TAF AMD
KPNC 291852Z 2919/3018 20010KT P6SM SCT040 BKN250
      TEMPO 2919/2921 VRB30KT 2SM TSRA BR OVC025CB
     FM300000 13007KT P6SM SCT025 BKN250=

USA.gov is the U.S. government's official web portal to all federal, state and local government web resources and services.